Archival Weather

Snohomish County (Paine Fld)

Everett, Washington (KPAE)

Report from: Tuesday, May 21, 2024 7:53 AM PDT
Current time: Saturday, June 22, 2024 2:07 AM PDT

Current weather – Weather history – Daily summaries
Weather forecast

Present weatherLight rain
Temperature10.0°C (50.0°F)
Wind chill7.5°C (45.6°F)
Dew point7.2°C (45.0°F)
Winds 10 kts (5.1 m/s, 11.5 mph) South-Southeast (160°)
Visibility9 mi. (14.5 km)
Clouds Ceiling: Overcast 1,100 ft. (335 m)
Altimeter30.11 in.Hg (1020 mB)
Precipitiation0.01 in. (0 mm)
Precip. events Rain began 2:08 PM
Precip last 3 hours0.01 in. (0 mm)
Relative humidity83 %
Density altitude-670 ft. (-204 m)
Sea-level pressure102.0 kPa (1020 mB, 30.11 in.Hg)
Remarks Automated weather observing station with precipitation discriminator
Pressure falling more quickly
Flight conditions Marginal Visual Meteorological Conditions
Raw dataKPAE 211453Z 16010KT 9SM -RA OVC011 10/07 A3011 RMK AO2 RAB08 SLP197 P0001 60001 T01000072 58015
An error has occurred. This application may no longer respond until reloaded. Reload 🗙